Time;durP1;ratioP1;P1;durP2;ratioP2;P2;SDS_P1;SDS_P2;PMS_P1;PMS_P2;Temp;Humidity;BMP_temperature;BMP_pressure;BME280_temperature;BME280_humidity;BME280_pressure;Samples;Min_cycle;Max_cycle;Signal;HPM_P1;HPM_P2
2023/08/22 00:00:46;;;;;;;0.20;0.20;;;;;;;21.66;62.81;102182.47;5106536;28;20041;-82
2023/08/22 00:03:13;;;;;;;0.10;0.10;;;;;;;21.63;62.94;102183.47;5112376;28;20027;-82
2023/08/22 00:05:39;;;;;;;0.05;0.05;;;;;;;21.60;63.26;102183.59;5110145;28;20558;-81
2023/08/22 00:08:06;;;;;;;0.10;0.10;;;;;;;21.58;63.28;102179.22;5106447;28;20081;-81
2023/08/22 00:10:33;;;;;;;0.10;0.10;;;;;;;21.57;63.27;102183.75;5105896;28;20031;-81
2023/08/22 00:12:59;;;;;;;0.08;0.08;;;;;;;21.55;63.48;102185.59;5102892;28;20043;-81
2023/08/22 00:15:26;;;;;;;0.10;0.10;;;;;;;21.54;63.06;102182.97;5107096;28;20051;-81
2023/08/22 00:17:52;;;;;;;0.00;0.00;;;;;;;21.53;63.07;102176.69;5105732;28;20020;-81
2023/08/22 00:20:18;;;;;;;0.00;0.00;;;;;;;21.51;63.17;102170.53;5112355;28;20461;-82
2023/08/22 00:22:45;;;;;;;0.10;0.10;;;;;;;21.48;63.26;102168.84;5110082;28;20044;-81
2023/08/22 00:25:11;;;;;;;0.10;0.10;;;;;;;21.47;63.04;102169.78;5112439;28;21543;-82
2023/08/22 00:27:38;;;;;;;0.10;0.10;;;;;;;21.44;63.27;102163.66;5109844;28;20027;-83
2023/08/22 00:30:05;;;;;;;0.00;0.00;;;;;;;21.41;63.42;102164.66;5103937;28;20114;-82
2023/08/22 00:32:32;;;;;;;0.13;0.13;;;;;;;21.39;63.37;102160.28;5106395;28;20024;-82
2023/08/22 00:34:58;;;;;;;0.35;0.35;;;;;;;21.35;63.36;102156.84;5104783;28;20020;-84
2023/08/22 00:37:24;;;;;;;0.08;0.08;;;;;;;21.34;63.44;102155.94;5107545;28;20040;-81
2023/08/22 00:39:51;;;;;;;0.10;0.10;;;;;;;21.31;63.72;102150.72;5099523;28;20024;-81
2023/08/22 00:42:17;;;;;;;0.10;0.10;;;;;;;21.29;63.74;102149.91;5100872;28;20032;-81
2023/08/22 00:44:43;;;;;;;0.10;0.10;;;;;;;21.28;63.69;102144.59;5123922;28;20040;-81
2023/08/22 00:47:10;;;;;;;0.00;0.00;;;;;;;21.28;63.91;102148.16;5130016;28;20036;-83
2023/08/22 00:49:37;;;;;;;0.13;0.13;;;;;;;21.26;63.90;102141.06;5111070;28;20031;-83
2023/08/22 00:52:04;;;;;;;0.03;0.03;;;;;;;21.25;63.85;102139.34;5110900;28;20023;-82
2023/08/22 00:54:31;;;;;;;0.30;0.30;;;;;;;21.21;64.37;102138.59;5107339;28;20688;-83
2023/08/22 00:56:59;;;;;;;0.10;0.10;;;;;;;21.18;63.76;102141.41;5117623;28;20038;-82
2023/08/22 00:59:26;;;;;;;0.10;0.10;;;;;;;21.17;64.27;102136.97;5109346;28;20023;-81
2023/08/22 01:01:53;;;;;;;0.00;0.00;;;;;;;21.13;64.32;102135.34;5110464;28;20058;-81
2023/08/22 01:04:20;;;;;;;0.00;0.00;;;;;;;21.12;64.46;102130.91;5107948;28;20020;-82
2023/08/22 01:07:00;;;;;;;0.10;0.10;;;;;;;21.11;64.97;102107.59;5109629;28;20123;-81
2023/08/22 01:09:33;;;;;;;0.60;0.60;;;;;;;21.07;64.40;102114.06;5100533;28;20466;-81
2023/08/22 01:12:19;;;;;;;0.00;0.00;;;;;;;21.05;64.66;102126.72;5099790;28;20039;-82
2023/08/22 01:14:52;;;;;;;0.50;0.50;;;;;;;21.01;64.78;102118.78;5108989;28;20019;-80
2023/08/22 01:17:18;;;;;;;0.00;0.00;;;;;;;20.98;64.77;102115.34;5109695;28;20032;-81
2023/08/22 01:19:45;;;;;;;0.00;0.00;;;;;;;20.98;64.91;102127.00;5115023;28;20098;-82
2023/08/22 01:22:12;;;;;;;0.00;0.00;;;;;;;20.97;64.33;102129.75;5110130;28;20028;-82
2023/08/22 01:24:38;;;;;;;0.10;0.10;;;;;;;20.96;64.85;102128.00;5113267;28;20047;-82
2023/08/22 01:27:08;;;;;;;0.43;0.43;;;;;;;20.95;65.19;102127.13;5101346;28;20118;-82
2023/08/22 01:29:41;;;;;;;0.03;0.03;;;;;;;20.93;64.98;102128.16;5103122;28;20204;-82
2023/08/22 01:32:17;;;;;;;0.00;0.00;;;;;;;20.90;65.07;102137.25;5102028;28;20119;-81
2023/08/22 01:34:44;;;;;;;4.57;0.52;;;;;;;20.83;65.19;102133.06;5105727;28;20020;-82
2023/08/22 01:37:12;;;;;;;0.10;0.10;;;;;;;20.80;65.33;102130.50;5111911;28;20463;-82
2023/08/22 01:39:41;;;;;;;0.10;0.10;;;;;;;20.77;65.03;102139.59;5105310;28;20031;-81
2023/08/22 01:42:08;;;;;;;0.00;0.00;;;;;;;20.75;65.03;102140.56;5113763;28;20027;-81
2023/08/22 01:44:37;;;;;;;0.10;0.10;;;;;;;20.74;65.05;102133.47;5098139;28;20045;-82
2023/08/22 01:47:03;;;;;;;0.00;0.00;;;;;;;20.72;64.84;102129.94;5108893;28;20111;-82
2023/08/22 01:49:30;;;;;;;0.00;0.00;;;;;;;20.71;64.72;102141.63;5111901;28;20035;-82
2023/08/22 01:51:58;;;;;;;1.05;1.02;;;;;;;20.69;65.01;102133.63;5108308;28;20383;-82
2023/08/22 01:54:24;;;;;;;0.00;0.00;;;;;;;20.68;65.02;102130.03;5111106;28;20024;-82
2023/08/22 01:56:50;;;;;;;0.10;0.10;;;;;;;20.68;65.20;102131.84;5106124;28;20043;-81
2023/08/22 01:59:16;;;;;;;0.13;0.13;;;;;;;20.67;65.18;102131.00;5106990;28;20667;-82
2023/08/22 02:01:42;;;;;;;0.10;0.10;;;;;;;20.67;64.59;102130.09;5113851;28;20510;-82
2023/08/22 02:04:08;;;;;;;0.05;0.05;;;;;;;20.67;65.01;102132.78;5105159;28;20047;-82
2023/08/22 02:06:34;;;;;;;0.10;0.10;;;;;;;20.65;64.69;102130.16;5104913;28;20518;-82
2023/08/22 02:09:00;;;;;;;0.20;0.20;;;;;;;20.64;64.60;102125.72;5112422;28;20031;-82
2023/08/22 02:11:27;;;;;;;0.08;0.08;;;;;;;20.63;64.63;102132.03;5108655;28;20034;-82
2023/08/22 02:13:53;;;;;;;0.00;0.00;;;;;;;20.61;64.45;102128.56;5106781;28;20039;-81
2023/08/22 02:16:19;;;;;;;0.10;0.10;;;;;;;20.61;64.51;102122.28;5103240;28;20515;-82
2023/08/22 02:18:45;;;;;;;0.05;0.05;;;;;;;20.60;64.69;102120.50;5106628;28;20034;-82
2023/08/22 02:21:11;;;;;;;0.10;0.10;;;;;;;20.56;64.84;102116.22;5106911;28;20083;-83
2023/08/22 02:23:37;;;;;;;0.10;0.10;;;;;;;20.52;64.80;102124.44;5101739;28;20393;-81
2023/08/22 02:26:03;;;;;;;1.20;0.90;;;;;;;20.48;64.73;102121.91;5107423;28;20031;-81
2023/08/22 02:28:29;;;;;;;0.17;0.17;;;;;;;20.43;64.76;102129.31;5110102;28;20376;-81
2023/08/22 02:30:56;;;;;;;0.10;0.10;;;;;;;20.43;64.89;102124.78;5100159;28;20099;-81
2023/08/22 02:33:22;;;;;;;0.00;0.00;;;;;;;20.41;64.79;102129.38;5112784;28;20436;-81
2023/08/22 02:35:49;;;;;;;0.00;0.00;;;;;;;20.39;64.79;102127.66;5113756;28;20023;-82
2023/08/22 02:38:16;;;;;;;0.00;0.00;;;;;;;20.35;64.84;102121.56;5109145;28;20028;-81
2023/08/22 02:40:42;;;;;;;0.00;0.00;;;;;;;20.30;64.80;102119.06;5106667;28;20032;-81
2023/08/22 02:43:08;;;;;;;0.00;0.00;;;;;;;20.27;64.92;102116.47;5116714;28;20027;-82
2023/08/22 02:45:35;;;;;;;0.00;0.00;;;;;;;20.25;65.15;102110.28;5110772;28;20107;-81
2023/08/22 02:48:01;;;;;;;0.00;0.00;;;;;;;20.23;64.79;102098.69;5112129;28;20034;-82
2023/08/22 02:50:27;;;;;;;0.00;0.00;;;;;;;20.19;65.19;102095.25;5109397;28;20039;-82
2023/08/22 02:52:53;;;;;;;0.10;0.10;;;;;;;20.18;65.21;102098.03;5111089;28;20043;-82
2023/08/22 02:55:20;;;;;;;0.10;0.10;;;;;;;20.16;65.31;102095.41;5110822;28;20074;-82
2023/08/22 02:57:46;;;;;;;0.00;0.00;;;;;;;20.14;65.32;102099.09;5110851;28;20057;-82
2023/08/22 03:00:14;;;;;;;0.10;0.10;;;;;;;20.13;65.56;102100.88;5110719;28;20078;-82
2023/08/22 03:02:41;;;;;;;0.10;0.10;;;;;;;20.12;65.43;102103.66;5115608;28;20049;-82
2023/08/22 03:05:12;;;;;;;0.10;0.10;;;;;;;20.11;65.09;102107.28;5119363;28;20032;-82
2023/08/22 03:07:39;;;;;;;0.00;0.00;;;;;;;20.08;65.47;102107.41;5110861;28;20417;-82
2023/08/22 03:10:06;;;;;;;0.00;0.00;;;;;;;20.07;65.54;102103.81;5113837;28;20042;-82
2023/08/22 03:12:32;;;;;;;0.10;0.10;;;;;;;20.04;65.65;102104.81;5116252;28;20076;-82
2023/08/22 03:14:58;;;;;;;0.20;0.20;;;;;;;20.03;65.54;102100.38;5105412;28;20550;-82
2023/08/22 03:17:24;;;;;;;0.10;0.10;;;;;;;20.00;65.35;102094.25;5116882;28;20035;-82
2023/08/22 03:19:50;;;;;;;0.10;0.10;;;;;;;19.97;65.40;102100.63;5109235;28;20032;-82
2023/08/22 03:22:17;;;;;;;0.10;0.10;;;;;;;19.96;65.54;102093.50;5109218;28;20044;-82
2023/08/22 03:24:43;;;;;;;0.08;0.08;;;;;;;19.92;65.92;102086.47;5108933;28;20394;-82
2023/08/22 03:27:09;;;;;;;0.10;0.10;;;;;;;19.90;66.07;102088.38;5112109;28;20024;-82
2023/08/22 03:29:35;;;;;;;0.08;0.08;;;;;;;19.86;66.32;102092.09;5109175;28;20024;-82
2023/08/22 03:32:01;;;;;;;0.10;0.10;;;;;;;19.86;65.94;102090.31;5105188;28;20116;-82
2023/08/22 03:34:27;;;;;;;0.10;0.10;;;;;;;19.85;66.22;102095.72;5109371;28;20016;-81
2023/08/22 03:36:53;;;;;;;0.10;0.10;;;;;;;19.86;66.36;102094.78;5119216;28;20099;-82
2023/08/22 03:39:19;;;;;;;0.10;0.10;;;;;;;19.83;66.40;102092.22;5103210;28;20051;-82
2023/08/22 03:41:45;;;;;;;0.10;0.10;;;;;;;19.81;66.45;102083.31;5101937;28;20036;-81
2023/08/22 03:44:12;;;;;;;0.10;0.10;;;;;;;19.81;66.59;102088.69;5109240;28;20432;-82
2023/08/22 03:46:38;;;;;;;0.10;0.10;;;;;;;19.78;66.63;102089.69;5099911;28;20020;-81
2023/08/22 03:49:04;;;;;;;0.10;0.10;;;;;;;19.76;66.49;102090.69;5115809;28;20387;-81
2023/08/22 03:51:30;;;;;;;2.50;0.40;;;;;;;19.77;66.71;102076.31;5109290;28;20028;-81
2023/08/22 03:53:56;;;;;;;0.00;0.00;;;;;;;19.75;66.44;102079.06;5107571;28;20012;-80
2023/08/22 03:56:22;;;;;;;0.13;0.13;;;;;;;19.76;66.42;102078.09;5109507;28;20028;-81
2023/08/22 03:58:50;;;;;;;0.05;0.05;;;;;;;19.73;66.65;102076.41;5118983;28;20032;-81
2023/08/22 04:01:16;;;;;;;0.30;0.30;;;;;;;19.71;66.55;102069.34;5120736;28;20039;-81
2023/08/22 04:03:42;;;;;;;0.00;0.00;;;;;;;19.70;66.72;102065.78;5109041;28;20036;-82
2023/08/22 04:06:09;;;;;;;0.95;0.20;;;;;;;19.69;66.90;102068.53;5115420;28;20035;-82
2023/08/22 04:08:35;;;;;;;0.10;0.10;;;;;;;19.68;66.65;102072.16;5112818;28;20510;-82
2023/08/22 04:11:01;;;;;;;0.00;0.00;;;;;;;19.67;66.43;102070.41;5105563;28;20039;-81
2023/08/22 04:13:27;;;;;;;0.65;0.43;;;;;;;19.64;67.00;102068.72;5106392;28;20024;-82
2023/08/22 04:15:53;;;;;;;0.20;0.20;;;;;;;19.62;66.95;102067.88;5109246;28;20027;-82
2023/08/22 04:18:19;;;;;;;0.00;0.00;;;;;;;19.61;66.56;102065.25;5106485;28;20031;-82
2023/08/22 04:20:45;;;;;;;0.10;0.10;;;;;;;19.58;66.88;102071.63;5115693;28;20106;-82
2023/08/22 04:23:11;;;;;;;0.00;0.00;;;;;;;19.57;66.69;102072.56;5109528;28;20032;-82
2023/08/22 04:25:38;;;;;;;0.10;0.10;;;;;;;19.56;66.61;102074.41;5105216;28;20096;-81
2023/08/22 04:28:04;;;;;;;0.10;0.10;;;;;;;19.55;66.81;102072.63;5106296;28;20036;-82
2023/08/22 04:30:31;;;;;;;0.10;0.10;;;;;;;19.52;66.88;102075.41;5114366;28;20035;-83
2023/08/22 04:32:57;;;;;;;0.52;0.52;;;;;;;19.51;66.83;102080.88;5111286;28;20594;-81
2023/08/22 04:35:23;;;;;;;0.10;0.10;;;;;;;19.51;66.94;102075.50;5104743;28;20087;-81
2023/08/22 04:37:50;;;;;;;0.03;0.03;;;;;;;19.50;66.60;102079.09;5110005;28;20027;-81
2023/08/22 04:40:16;;;;;;;0.00;0.00;;;;;;;19.47;66.84;102085.47;5106258;28;20498;-82
2023/08/22 04:42:42;;;;;;;0.10;0.10;;;;;;;19.47;66.93;102080.09;5107608;28;20585;-82
2023/08/22 04:45:09;;;;;;;0.00;0.00;;;;;;;19.48;66.79;102081.00;5106898;28;20031;-81
2023/08/22 04:47:35;;;;;;;0.10;0.10;;;;;;;19.48;67.00;102083.69;5106344;28;20039;-82
2023/08/22 04:50:01;;;;;;;0.20;0.20;;;;;;;19.49;66.91;102088.09;5113815;28;20023;-82
2023/08/22 04:52:27;;;;;;;0.00;0.00;;;;;;;19.50;66.77;102084.47;5102760;28;20038;-81
2023/08/22 04:54:55;;;;;;;0.05;0.05;;;;;;;19.50;67.07;102082.69;5109021;28;20024;-82
2023/08/22 04:57:23;;;;;;;0.22;0.22;;;;;;;19.49;66.74;102078.25;5103953;28;20052;-82
2023/08/22 04:59:52;;;;;;;0.10;0.05;;;;;;;19.50;66.92;102077.31;5114797;28;20151;-82
2023/08/22 05:02:18;;;;;;;0.00;0.00;;;;;;;19.52;66.71;102078.09;5101030;28;20035;-81
2023/08/22 05:04:44;;;;;;;0.00;0.00;;;;;;;19.52;66.78;102070.03;5113785;28;20023;-82
2023/08/22 05:07:10;;;;;;;0.10;0.10;;;;;;;19.52;66.82;102075.41;5109541;28;20081;-82
2023/08/22 05:09:36;;;;;;;0.10;0.10;;;;;;;19.53;66.56;102074.50;5116207;28;20031;-81
2023/08/22 05:12:03;;;;;;;0.10;0.10;;;;;;;19.53;66.61;102076.31;5105992;28;20682;-81
2023/08/22 05:14:30;;;;;;;0.10;0.10;;;;;;;19.54;66.55;102083.44;5109499;28;20031;-81
2023/08/22 05:16:56;;;;;;;0.10;0.10;;;;;;;19.54;66.76;102078.94;5114167;28;20036;-82
2023/08/22 05:19:22;;;;;;;0.08;0.08;;;;;;;19.54;66.55;102075.38;5101344;28;20028;-81
2023/08/22 05:21:48;;;;;;;0.00;0.00;;;;;;;19.54;67.13;102086.13;5117504;28;20016;-83
2023/08/22 05:24:14;;;;;;;0.00;0.00;;;;;;;19.54;66.91;102083.44;5114579;28;20403;-81
2023/08/22 05:26:40;;;;;;;0.10;0.10;;;;;;;19.55;66.97;102077.13;5108160;28;20024;-81
2023/08/22 05:29:06;;;;;;;0.10;0.10;;;;;;;19.57;67.20;102080.63;5105317;28;20077;-81
2023/08/22 05:31:33;;;;;;;0.10;0.10;;;;;;;19.61;67.23;102084.94;5107349;28;20506;-81
2023/08/22 05:33:59;;;;;;;0.10;0.10;;;;;;;19.66;67.50;102085.63;5108367;28;20031;-82
2023/08/22 05:36:25;;;;;;;0.10;0.10;;;;;;;19.70;67.31;102095.38;5106516;28;20036;-82
2023/08/22 05:38:51;;;;;;;0.20;0.20;;;;;;;19.75;67.01;102095.19;5115282;28;20028;-80
2023/08/22 05:41:17;;;;;;;0.10;0.10;;;;;;;19.80;67.12;102100.38;5100914;28;20044;-80
2023/08/22 05:43:43;;;;;;;0.10;0.10;;;;;;;19.84;67.07;102094.00;5098548;28;20039;-80
2023/08/22 05:46:09;;;;;;;0.10;0.10;;;;;;;19.88;67.07;102098.31;5105527;28;20069;-80
2023/08/22 05:48:35;;;;;;;0.10;0.10;;;;;;;19.96;66.97;102090.81;5096465;28;20089;-80
2023/08/22 05:51:02;;;;;;;0.30;0.30;;;;;;;19.94;67.00;102095.38;5112050;28;20096;-80
2023/08/22 05:53:28;;;;;;;0.10;0.10;;;;;;;19.97;66.39;102100.63;5103452;28;20015;-81
2023/08/22 05:55:55;;;;;;;0.08;0.08;;;;;;;20.00;66.93;102111.28;5115369;28;20051;-81
2023/08/22 05:58:21;;;;;;;0.25;0.25;;;;;;;20.07;66.95;102103.81;5106825;28;20024;-81
2023/08/22 06:00:47;;;;;;;0.65;0.65;;;;;;;20.06;66.91;102103.88;5110954;28;20072;-82
2023/08/22 06:03:13;;;;;;;0.10;0.10;;;;;;;20.08;66.77;102107.41;5114466;28;20533;-81
2023/08/22 06:05:41;;;;;;;0.00;0.00;;;;;;;20.12;67.11;102099.13;5111821;28;20021;-82
2023/08/22 06:08:07;;;;;;;0.00;0.00;;;;;;;20.19;67.42;102099.78;5114530;28;20028;-79
2023/08/22 06:10:33;;;;;;;0.10;0.10;;;;;;;20.27;66.81;102105.69;5104443;28;20455;-80
2023/08/22 06:12:59;;;;;;;0.17;0.13;;;;;;;20.34;67.11;102103.66;5107755;28;20068;-80
2023/08/22 06:15:25;;;;;;;0.00;0.00;;;;;;;20.42;67.38;102100.63;5104931;28;20028;-79
2023/08/22 06:17:51;;;;;;;0.43;0.43;;;;;;;20.49;67.32;102102.16;5112963;28;20036;-77
2023/08/22 06:20:17;;;;;;;0.32;0.32;;;;;;;20.54;67.45;102100.13;5108213;28;20024;-80
2023/08/22 06:22:44;;;;;;;0.40;0.40;;;;;;;20.57;66.47;102105.38;5108974;28;20035;-79
2023/08/22 06:25:10;;;;;;;0.00;0.00;;;;;;;20.60;67.02;102110.63;5100766;28;20039;-79
2023/08/22 06:27:36;;;;;;;0.28;0.28;;;;;;;20.62;66.63;102105.19;5108905;28;20028;-79
2023/08/22 06:30:02;;;;;;;0.10;0.10;;;;;;;20.60;66.95;102105.25;5102810;28;20141;-79
2023/08/22 06:32:28;;;;;;;0.10;0.10;;;;;;;20.60;66.94;102107.94;5099706;28;20103;-79
2023/08/22 06:34:59;;;;;;;0.13;0.13;;;;;;;20.65;67.52;102111.31;5103225;28;20024;-79
2023/08/22 06:37:25;;;;;;;0.10;0.10;;;;;;;20.67;66.69;102106.75;5113225;28;20077;-79
2023/08/22 06:39:51;;;;;;;0.00;0.00;;;;;;;20.72;67.05;102108.41;5103463;28;20024;-80
2023/08/22 06:42:17;;;;;;;2.08;0.30;;;;;;;20.74;67.66;102102.00;5104154;28;20028;-78
2023/08/22 06:44:43;;;;;;;0.25;0.25;;;;;;;20.83;66.87;102106.97;5111622;28;20368;-79
2023/08/22 06:47:09;;;;;;;0.90;0.85;;;;;;;20.83;66.96;102101.59;5111085;28;20503;-80
2023/08/22 06:49:36;;;;;;;0.20;0.20;;;;;;;20.94;66.86;102103.81;5102964;28;20077;-79
2023/08/22 06:52:02;;;;;;;0.10;0.10;;;;;;;21.01;66.42;102104.44;5117574;28;20036;-79
2023/08/22 06:54:28;;;;;;;0.10;0.10;;;;;;;21.09;66.30;102096.88;5112551;28;20394;-79
2023/08/22 06:56:54;;;;;;;0.10;0.10;;;;;;;21.15;66.45;102098.44;5120846;28;20028;-79
2023/08/22 06:59:20;;;;;;;0.08;0.08;;;;;;;21.23;66.09;102104.34;5113427;28;20051;-79
2023/08/22 07:01:46;;;;;;;0.00;0.00;;;;;;;21.34;66.01;102101.19;5105560;28;20052;-80
2023/08/22 07:04:12;;;;;;;7.22;1.20;;;;;;;21.40;65.39;102106.28;5111877;28;20027;-80
2023/08/22 07:06:38;;;;;;;0.10;0.10;;;;;;;21.42;65.10;102109.81;5115156;28;20028;-79
2023/08/22 07:09:04;;;;;;;0.17;0.17;;;;;;;21.54;64.98;102102.94;5107299;28;20020;-81
2023/08/22 07:11:30;;;;;;;0.57;0.47;;;;;;;21.58;64.94;102109.13;5119468;28;20023;-80
2023/08/22 07:13:56;;;;;;;1.00;1.00;;;;;;;21.68;64.69;102109.56;5114492;28;20058;-79
2023/08/22 07:16:22;;;;;;;0.82;0.80;;;;;;;21.74;64.55;102114.66;5101209;28;20040;-80
2023/08/22 07:18:48;;;;;;;0.15;0.15;;;;;;;21.84;64.26;102115.97;5097949;28;20039;-80
2023/08/22 07:21:14;;;;;;;0.20;0.20;;;;;;;21.93;64.25;102131.75;5099143;28;20501;-80
2023/08/22 07:23:40;;;;;;;0.10;0.10;;;;;;;22.04;64.05;102133.91;5110871;28;20091;-80
2023/08/22 07:26:07;;;;;;;0.05;0.05;;;;;;;22.11;63.95;102135.38;5109300;28;20402;-80
2023/08/22 07:28:33;;;;;;;0.10;0.10;;;;;;;22.16;63.66;102139.66;5115028;28;20140;-80
2023/08/22 07:31:03;;;;;;;0.00;0.00;;;;;;;22.20;63.80;102135.88;5112376;28;20034;-80
2023/08/22 07:33:29;;;;;;;0.00;0.00;;;;;;;22.27;63.22;102135.50;5101838;28;20032;-82
2023/08/22 07:35:56;;;;;;;0.10;0.10;;;;;;;22.34;63.13;102137.91;5112115;28;20118;-81
2023/08/22 07:38:22;;;;;;;0.28;0.28;;;;;;;22.44;63.13;102139.22;5105801;28;20058;-81
2023/08/22 07:40:48;;;;;;;0.10;0.10;;;;;;;22.50;63.02;102147.03;5105055;28;20039;-81
2023/08/22 07:43:14;;;;;;;0.38;0.38;;;;;;;22.56;62.64;102149.41;5109248;28;20028;-81
2023/08/22 07:45:40;;;;;;;0.00;0.00;;;;;;;22.57;62.42;102148.47;5106166;28;20031;-81
2023/08/22 07:48:07;;;;;;;0.68;0.68;;;;;;;22.72;62.47;102154.06;5114120;28;20394;-81
2023/08/22 07:50:33;;;;;;;1.95;0.85;;;;;;;22.84;62.40;102166.06;5103665;28;20510;-81
2023/08/22 07:52:59;;;;;;;0.30;0.30;;;;;;;22.82;60.60;102167.94;5117070;28;20012;-81
2023/08/22 07:55:26;;;;;;;0.10;0.10;;;;;;;22.83;60.12;102165.19;5108390;28;20043;-81
2023/08/22 07:57:52;;;;;;;0.10;0.10;;;;;;;22.87;59.52;102172.19;5107636;28;20032;-81
2023/08/22 08:00:18;;;;;;;0.25;0.25;;;;;;;23.00;60.16;102163.44;5117224;28;20020;-81
2023/08/22 08:02:45;;;;;;;0.30;0.30;;;;;;;23.08;60.25;102159.41;5108712;28;20044;-82
2023/08/22 08:05:12;;;;;;;0.35;0.35;;;;;;;23.11;59.61;102152.94;5116384;27;20028;-83
2023/08/22 08:07:39;;;;;;;0.17;0.17;;;;;;;23.21;59.82;102156.94;5118407;28;20053;-83
2023/08/22 08:10:05;;;;;;;0.32;0.25;;;;;;;23.21;59.21;102148.84;5113116;28;20042;-82
2023/08/22 08:12:31;;;;;;;0.20;0.20;;;;;;;23.34;59.62;102143.66;5111581;28;20047;-81
2023/08/22 08:14:57;;;;;;;0.20;0.20;;;;;;;23.38;59.40;102145.25;5114433;28;20028;-82
2023/08/22 08:17:23;;;;;;;0.10;0.10;;;;;;;23.42;58.50;102152.22;5112262;28;20475;-82
2023/08/22 08:19:49;;;;;;;0.30;0.30;;;;;;;23.46;58.49;102150.22;5101124;28;20054;-81
2023/08/22 08:22:15;;;;;;;1.65;1.42;;;;;;;23.57;58.66;102153.22;5113505;28;20040;-81
2023/08/22 08:24:42;;;;;;;0.10;0.10;;;;;;;23.50;58.09;102150.94;5104979;28;20031;-82
2023/08/22 08:27:08;;;;;;;0.17;0.17;;;;;;;23.71;58.44;102146.19;5111051;28;20036;-81
2023/08/22 08:29:34;;;;;;;0.00;0.00;;;;;;;23.78;58.73;102136.78;5112621;28;20040;-81
2023/08/22 08:32:00;;;;;;;0.20;0.20;;;;;;;23.86;58.50;102139.94;5117887;28;20490;-82
2023/08/22 08:34:26;;;;;;;0.43;0.43;;;;;;;23.89;58.09;102139.75;5111471;28;20070;-81
2023/08/22 08:36:53;;;;;;;0.10;0.10;;;;;;;23.98;57.10;102134.84;5100959;28;20625;-81
2023/08/22 08:39:19;;;;;;;0.98;0.85;;;;;;;24.05;56.83;102139.81;5114870;28;20045;-81
2023/08/22 08:42:10;;;;;;;0.20;0.20;;;;;;;24.21;57.24;102131.69;5105600;28;20046;-82
2023/08/22 08:44:37;;;;;;;0.40;0.40;;;;;;;24.28;57.01;102139.47;5121507;28;20039;-82
2023/08/22 08:47:06;;;;;;;0.05;0.05;;;;;;;24.44;57.11;102143.00;5108054;28;20052;-83
2023/08/22 08:49:34;;;;;;;0.20;0.20;;;;;;;24.57;56.91;102131.47;5117992;27;20019;-82
2023/08/22 08:52:02;;;;;;;0.10;0.10;;;;;;;24.59;54.95;102134.97;5103583;28;20376;-82
2023/08/22 08:54:28;;;;;;;0.10;0.10;;;;;;;24.70;54.92;102129.81;5111535;28;20110;-82
2023/08/22 08:56:55;;;;;;;0.00;0.00;;;;;;;24.78;55.44;102141.03;5114156;28;20541;-82
2023/08/22 08:59:22;;;;;;;0.20;0.20;;;;;;;24.87;55.45;102137.81;5108839;28;20450;-83
2023/08/22 09:01:50;;;;;;;0.10;0.10;;;;;;;24.91;55.31;102143.03;5117981;28;20038;-82
2023/08/22 09:04:17;;;;;;;0.10;0.10;;;;;;;25.00;55.18;102148.75;5107326;28;20032;-82
2023/08/22 09:06:46;;;;;;;0.08;0.08;;;;;;;25.15;56.04;102141.53;5101289;28;20050;-83
2023/08/22 09:09:13;;;;;;;0.63;0.63;;;;;;;25.09;53.92;102151.88;5109031;28;20038;-82
2023/08/22 09:11:45;;;;;;;0.20;0.20;;;;;;;25.23;54.68;102156.47;5101137;28;20055;-82
2023/08/22 09:14:11;;;;;;;0.28;0.28;;;;;;;25.25;54.45;102143.69;5111525;28;20020;-82
2023/08/22 09:16:38;;;;;;;0.38;0.38;;;;;;;25.36;55.05;102138.47;5110582;28;20076;-82
2023/08/22 09:19:06;;;;;;;0.65;0.65;;;;;;;25.46;54.11;102142.38;5112253;27;20043;-82
2023/08/22 09:21:32;;;;;;;0.00;0.00;;;;;;;25.42;53.75;102138.13;5104997;28;20023;-82
2023/08/22 09:24:07;;;;;;;1.33;1.23;;;;;;;25.40;53.45;102133.75;5100694;28;20117;-81
2023/08/22 09:26:33;;;;;;;0.20;0.20;;;;;;;25.45;53.49;102142.47;5109459;28;20506;-82
2023/08/22 09:29:05;;;;;;;0.38;0.38;;;;;;;25.51;53.04;102137.53;5109023;28;20032;-82
2023/08/22 09:31:33;;;;;;;0.10;0.10;;;;;;;25.60;53.84;102135.22;5103196;28;20056;-81
2023/08/22 09:33:59;;;;;;;0.82;0.82;;;;;;;25.67;53.38;102152.81;5097749;28;20023;-82
2023/08/22 09:36:25;;;;;;;0.10;0.10;;;;;;;25.71;53.55;102154.41;5115242;28;20031;-82
2023/08/22 09:38:56;;;;;;;0.10;0.10;;;;;;;25.73;53.42;102149.72;5110521;28;20027;-82
2023/08/22 09:41:25;;;;;;;0.10;0.10;;;;;;;25.73;53.10;102157.88;5111170;28;20031;-82
2023/08/22 09:43:54;;;;;;;0.55;0.55;;;;;;;25.72;52.67;102158.88;5112414;28;20035;-83
2023/08/22 09:46:21;;;;;;;0.00;0.00;;;;;;;25.79;53.18;102156.63;5109702;28;20058;-80
2023/08/22 09:48:49;;;;;;;0.10;0.10;;;;;;;25.93;53.41;102147.56;5119367;28;20028;-82
2023/08/22 09:51:20;;;;;;;0.63;0.63;;;;;;;26.04;53.56;102149.59;5118567;28;20027;-82
2023/08/22 09:53:51;;;;;;;0.10;0.10;;;;;;;26.10;53.02;102150.09;5106588;28;20414;-84
2023/08/22 09:56:20;;;;;;;0.30;0.30;;;;;;;26.14;52.54;102153.47;5107986;28;20040;-83
2023/08/22 09:58:46;;;;;;;0.00;0.00;;;;;;;26.11;51.27;102151.84;5102364;28;20269;-83
2023/08/22 10:01:16;;;;;;;0.00;0.00;;;;;;;26.11;51.34;102151.00;5110456;28;20039;-82
2023/08/22 10:03:44;;;;;;;0.20;0.20;;;;;;;26.07;51.57;102144.00;5108455;28;20046;-83
2023/08/22 10:06:12;;;;;;;0.10;0.10;;;;;;;26.13;52.13;102149.03;5119408;28;20034;-83
2023/08/22 10:08:40;;;;;;;0.00;0.00;;;;;;;26.16;52.05;102149.69;5104550;28;20035;-83
2023/08/22 10:11:09;;;;;;;0.00;0.00;;;;;;;26.19;51.68;102145.91;5113290;28;20035;-83
2023/08/22 10:13:37;;;;;;;0.00;0.00;;;;;;;26.19;50.53;102153.19;5105969;28;20062;-83
2023/08/22 10:16:03;;;;;;;0.52;0.22;;;;;;;26.30;51.46;102150.63;5113660;28;20020;-83
2023/08/22 10:18:30;;;;;;;0.40;0.40;;;;;;;26.32;50.87;102144.13;5114426;28;20031;-84
2023/08/22 10:20:56;;;;;;;0.10;0.10;;;;;;;26.44;51.51;102142.44;5107181;28;20023;-83
2023/08/22 10:23:59;;;;;;;0.00;0.00;;;;;;;26.47;49.47;102131.34;5127929;28;20032;-84
2023/08/22 10:26:45;;;;;;;0.03;0.03;;;;;;;26.53;51.23;102140.94;5129116;28;20055;-83
2023/08/22 10:29:14;;;;;;;0.10;0.10;;;;;;;26.36;48.23;102138.50;5103702;28;20020;-83
2023/08/22 10:37:20;;;;;;;0.10;0.10;;;;;;;26.26;49.06;102159.97;5083378;28;20353;-83
2023/08/22 10:39:48;;;;;;;0.10;0.10;;;;;;;26.16;48.40;102148.84;5074524;28;20693;-82
2023/08/22 10:44:55;;;;;;;0.00;0.00;;;;;;;26.17;49.02;102145.16;5112258;27;20350;-82
2023/08/22 10:47:24;;;;;;;0.10;0.10;;;;;;;26.22;49.49;102163.84;5100770;28;20589;-84
2023/08/22 10:49:53;;;;;;;0.10;0.10;;;;;;;26.23;49.47;102160.16;5110562;28;20044;-84
2023/08/22 10:57:54;;;;;;;0.43;0.30;;;;;;;26.28;48.20;102148.03;5114523;27;20395;-84
2023/08/22 11:02:58;;;;;;;0.00;0.00;;;;;;;26.20;48.78;102149.50;5115940;27;20140;-83
2023/08/22 11:05:25;;;;;;;0.00;0.00;;;;;;;25.97;48.42;102160.88;5113601;28;20028;-83
2023/08/22 11:07:52;;;;;;;0.08;0.08;;;;;;;26.08;48.95;102168.34;5108636;28;20043;-83
2023/08/22 11:10:22;;;;;;;0.00;0.00;;;;;;;26.12;48.52;102169.00;5100380;28;20024;-83
2023/08/22 11:12:49;;;;;;;0.10;0.10;;;;;;;26.11;48.48;102164.56;5108610;28;20027;-83
2023/08/22 11:15:17;;;;;;;0.00;0.00;;;;;;;26.22;48.45;102158.41;5115788;28;20020;-84
2023/08/22 11:17:46;;;;;;;0.00;0.00;;;;;;;26.28;48.55;102152.56;5116413;28;20035;-83
2023/08/22 11:20:14;;;;;;;0.00;0.00;;;;;;;26.06;47.45;102154.00;5103516;28;20396;-83
2023/08/22 11:22:42;;;;;;;0.08;0.08;;;;;;;26.22;48.63;102150.25;5091528;28;20083;-82
2023/08/22 11:25:09;;;;;;;0.00;0.00;;;;;;;26.22;48.61;102150.25;5090293;28;20403;-82
2023/08/22 11:27:39;;;;;;;0.00;0.00;;;;;;;26.21;48.10;102164.84;5096747;28;20032;-81
2023/08/22 11:30:06;;;;;;;0.00;0.00;;;;;;;26.29;48.21;102163.34;5112664;28;20035;-82
2023/08/22 11:32:35;;;;;;;1.90;0.30;;;;;;;26.30;48.15;102165.06;5109551;28;20140;-80
2023/08/22 11:35:04;;;;;;;0.10;0.10;;;;;;;26.36;48.57;102165.66;5086220;28;20024;-83
2023/08/22 11:37:32;;;;;;;0.00;0.00;;;;;;;26.35;48.58;102164.78;5094832;28;20024;-83
2023/08/22 11:39:59;;;;;;;0.00;0.00;;;;;;;26.38;49.00;102170.03;5091884;28;20044;-82